sensor_id;sensor_type;location;lat;lon;timestamp;pressure;altitude;pressure_sealevel;temperature;humidity
26531;BME280;14201;43.188;24.160;2023-12-20T00:00:20;99907.28;;;4.20;76.50
26531;BME280;14201;43.188;24.160;2023-12-20T00:02:45;99906.84;;;4.14;76.90
26531;BME280;14201;43.188;24.160;2023-12-20T00:05:13;99881.22;;;4.04;76.48
26531;BME280;14201;43.188;24.160;2023-12-20T00:07:39;99903.59;;;4.17;76.88
26531;BME280;14201;43.188;24.160;2023-12-20T00:10:05;99893.97;;;4.14;76.29
26531;BME280;14201;43.188;24.160;2023-12-20T00:12:31;99898.22;;;4.13;76.29
26531;BME280;14201;43.188;24.160;2023-12-20T00:14:56;99904.59;;;4.19;76.47
26531;BME280;14201;43.188;24.160;2023-12-20T00:17:22;99889.63;;;4.13;76.83
26531;BME280;14201;43.188;24.160;2023-12-20T00:19:47;99894.78;;;4.13;76.21
26531;BME280;14201;43.188;24.160;2023-12-20T00:22:13;99893.19;;;4.15;75.71
26531;BME280;14201;43.188;24.160;2023-12-20T00:24:38;99890.38;;;4.12;75.81
26531;BME280;14201;43.188;24.160;2023-12-20T00:27:04;99886.69;;;4.08;76.34
26531;BME280;14201;43.188;24.160;2023-12-20T00:29:29;99888.13;;;4.05;76.35
26531;BME280;14201;43.188;24.160;2023-12-20T00:31:55;99888.13;;;4.05;76.96
26531;BME280;14201;43.188;24.160;2023-12-20T00:34:21;99882.09;;;4.04;77.06
26531;BME280;14201;43.188;24.160;2023-12-20T00:36:46;99883.00;;;4.05;77.25
26531;BME280;14201;43.188;24.160;2023-12-20T00:39:12;99875.94;;;4.02;77.12
26531;BME280;14201;43.188;24.160;2023-12-20T00:41:38;99865.84;;;3.93;77.31
26531;BME280;14201;43.188;24.160;2023-12-20T00:44:04;99869.78;;;4.00;76.71
26531;BME280;14201;43.188;24.160;2023-12-20T00:46:30;99875.38;;;3.94;76.75
26531;BME280;14201;43.188;24.160;2023-12-20T00:48:55;99871.50;;;3.88;77.38
26531;BME280;14201;43.188;24.160;2023-12-20T00:51:21;99859.81;;;3.81;77.23
26531;BME280;14201;43.188;24.160;2023-12-20T00:53:49;99854.47;;;3.78;77.26
26531;BME280;14201;43.188;24.160;2023-12-20T00:56:15;99857.06;;;3.78;77.19
26531;BME280;14201;43.188;24.160;2023-12-20T00:58:40;99870.47;;;3.74;77.51
26531;BME280;14201;43.188;24.160;2023-12-20T01:01:06;99853.25;;;3.61;78.03
26531;BME280;14201;43.188;24.160;2023-12-20T01:03:32;99855.38;;;3.67;77.09
26531;BME280;14201;43.188;24.160;2023-12-20T01:05:57;99831.94;;;3.64;77.47
26531;BME280;14201;43.188;24.160;2023-12-20T01:08:23;99831.94;;;3.64;78.09
26531;BME280;14201;43.188;24.160;2023-12-20T01:10:49;99831.06;;;3.63;78.27
26531;BME280;14201;43.188;24.160;2023-12-20T01:13:14;99833.53;;;3.62;78.59
26531;BME280;14201;43.188;24.160;2023-12-20T01:15:40;99835.84;;;3.59;78.21
26531;BME280;14201;43.188;24.160;2023-12-20T01:18:05;99826.38;;;3.58;78.53
26531;BME280;14201;43.188;24.160;2023-12-20T01:20:31;99814.72;;;3.51;78.18
26531;BME280;14201;43.188;24.160;2023-12-20T01:22:57;99816.75;;;3.55;77.84
26531;BME280;14201;43.188;24.160;2023-12-20T01:25:22;99793.47;;;3.42;77.82
26531;BME280;14201;43.188;24.160;2023-12-20T01:27:48;99806.91;;;3.49;78.33
26531;BME280;14201;43.188;24.160;2023-12-20T01:30:14;99808.34;;;3.46;78.59
26531;BME280;14201;43.188;24.160;2023-12-20T01:32:40;99799.25;;;3.39;78.45
26531;BME280;14201;43.188;24.160;2023-12-20T01:35:06;99800.50;;;3.44;77.89
26531;BME280;14201;43.188;24.160;2023-12-20T01:37:31;99788.09;;;3.27;78.37
26531;BME280;14201;43.188;24.160;2023-12-20T01:39:57;99796.69;;;3.15;78.54
26531;BME280;14201;43.188;24.160;2023-12-20T01:42:24;99790.78;;;3.17;78.20
26531;BME280;14201;43.188;24.160;2023-12-20T01:44:49;99790.78;;;3.17;77.36
26531;BME280;14201;43.188;24.160;2023-12-20T01:47:15;99784.25;;;3.10;77.85
26531;BME280;14201;43.188;24.160;2023-12-20T01:49:41;99784.03;;;3.07;77.69
26531;BME280;14201;43.188;24.160;2023-12-20T01:52:08;99781.47;;;3.07;77.52
26531;BME280;14201;43.188;24.160;2023-12-20T01:54:34;99777.22;;;3.07;77.63
26531;BME280;14201;43.188;24.160;2023-12-20T01:57:01;99766.25;;;2.98;77.85
26531;BME280;14201;43.188;24.160;2023-12-20T01:59:30;99763.53;;;2.96;78.34
26531;BME280;14201;43.188;24.160;2023-12-20T02:01:56;99752.16;;;2.93;77.98
26531;BME280;14201;43.188;24.160;2023-12-20T02:04:22;99754.72;;;2.93;78.23
26531;BME280;14201;43.188;24.160;2023-12-20T02:06:48;99759.88;;;2.93;78.42
26531;BME280;14201;43.188;24.160;2023-12-20T02:09:15;99752.16;;;2.93;78.74
26531;BME280;14201;43.188;24.160;2023-12-20T02:11:41;99748.78;;;2.94;78.54
26531;BME280;14201;43.188;24.160;2023-12-20T02:14:07;99744.19;;;2.90;78.77
26531;BME280;14201;43.188;24.160;2023-12-20T02:16:32;99727.19;;;2.92;77.96
26531;BME280;14201;43.188;24.160;2023-12-20T02:18:58;99735.94;;;2.94;77.92
26531;BME280;14201;43.188;24.160;2023-12-20T02:21:33;99730.66;;;2.92;78.45
26531;BME280;14201;43.188;24.160;2023-12-20T02:24:00;99727.44;;;2.95;78.38
26531;BME280;14201;43.188;24.160;2023-12-20T02:26:25;99736.34;;;2.76;78.87
26531;BME280;14201;43.188;24.160;2023-12-20T02:28:51;99717.00;;;2.58;79.68
26531;BME280;14201;43.188;24.160;2023-12-20T02:31:21;99718.47;;;2.66;79.71
26531;BME280;14201;43.188;24.160;2023-12-20T02:33:47;99717.34;;;2.74;78.91
26531;BME280;14201;43.188;24.160;2023-12-20T02:36:13;99717.78;;;2.69;78.88
26531;BME280;14201;43.188;24.160;2023-12-20T02:38:38;99706.38;;;2.65;78.55
26531;BME280;14201;43.188;24.160;2023-12-20T02:41:04;99705.47;;;2.65;78.52
26531;BME280;14201;43.188;24.160;2023-12-20T02:43:29;99701.03;;;2.62;78.53
26531;BME280;14201;43.188;24.160;2023-12-20T02:45:55;99687.16;;;2.60;78.30
26531;BME280;14201;43.188;24.160;2023-12-20T02:48:20;99708.84;;;2.64;78.23
26531;BME280;14201;43.188;24.160;2023-12-20T02:50:47;99701.09;;;2.52;78.73
26531;BME280;14201;43.188;24.160;2023-12-20T02:53:14;99699.44;;;2.52;78.43
26531;BME280;14201;43.188;24.160;2023-12-20T02:55:40;99690.47;;;2.47;78.52
26531;BME280;14201;43.188;24.160;2023-12-20T02:58:06;99684.22;;;2.44;78.92
26531;BME280;14201;43.188;24.160;2023-12-20T03:00:31;99691.38;;;2.48;79.17
26531;BME280;14201;43.188;24.160;2023-12-20T03:02:57;99685.22;;;2.46;79.24
26531;BME280;14201;43.188;24.160;2023-12-20T03:05:24;99679.31;;;2.47;79.24
26531;BME280;14201;43.188;24.160;2023-12-20T03:07:53;99667.22;;;2.46;78.90
26531;BME280;14201;43.188;24.160;2023-12-20T03:10:19;99672.25;;;2.44;79.26
26531;BME280;14201;43.188;24.160;2023-12-20T03:12:44;99681.09;;;2.48;79.31
26531;BME280;14201;43.188;24.160;2023-12-20T03:15:10;99672.47;;;2.47;79.38
26531;BME280;14201;43.188;24.160;2023-12-20T03:17:36;99663.66;;;2.44;79.46
26531;BME280;14201;43.188;24.160;2023-12-20T03:20:02;99661.75;;;2.41;79.51
26531;BME280;14201;43.188;24.160;2023-12-20T03:22:27;99655.94;;;2.44;79.32
26531;BME280;14201;43.188;24.160;2023-12-20T03:24:53;99652.94;;;2.49;79.01
26531;BME280;14201;43.188;24.160;2023-12-20T03:27:18;99657.19;;;2.49;79.12
26531;BME280;14201;43.188;24.160;2023-12-20T03:29:44;99655.63;;;2.51;78.87
26531;BME280;14201;43.188;24.160;2023-12-20T03:32:10;99655.63;;;2.51;78.50
26531;BME280;14201;43.188;24.160;2023-12-20T03:34:35;99653.16;;;2.41;79.36
26531;BME280;14201;43.188;24.160;2023-12-20T03:37:01;99634.16;;;2.39;79.33
26531;BME280;14201;43.188;24.160;2023-12-20T03:39:26;99624.53;;;2.36;79.31
26531;BME280;14201;43.188;24.160;2023-12-20T03:41:52;99619.19;;;2.33;79.30
26531;BME280;14201;43.188;24.160;2023-12-20T03:44:18;99630.13;;;2.42;79.36
26531;BME280;14201;43.188;24.160;2023-12-20T03:46:43;99630.78;;;2.40;79.44
26531;BME280;14201;43.188;24.160;2023-12-20T03:49:10;99623.41;;;2.32;78.99
26531;BME280;14201;43.188;24.160;2023-12-20T03:51:36;99635.47;;;2.33;78.78
26531;BME280;14201;43.188;24.160;2023-12-20T03:54:02;99630.47;;;2.35;78.39
26531;BME280;14201;43.188;24.160;2023-12-20T03:56:28;99623.41;;;2.32;79.09
26531;BME280;14201;43.188;24.160;2023-12-20T03:58:54;99614.69;;;2.30;79.19
26531;BME280;14201;43.188;24.160;2023-12-20T04:01:19;99614.13;;;2.34;79.10
26531;BME280;14201;43.188;24.160;2023-12-20T04:03:45;99622.50;;;2.32;79.06
26531;BME280;14201;43.188;24.160;2023-12-20T04:06:16;99613.81;;;2.30;78.85
26531;BME280;14201;43.188;24.160;2023-12-20T04:08:42;99592.56;;;2.21;79.12
26531;BME280;14201;43.188;24.160;2023-12-20T04:11:07;99604.31;;;2.29;79.37
26531;BME280;14201;43.188;24.160;2023-12-20T04:13:33;99599.94;;;2.28;79.61
26531;BME280;14201;43.188;24.160;2023-12-20T04:15:58;99593.81;;;2.26;79.23
26531;BME280;14201;43.188;24.160;2023-12-20T04:18:24;99597.25;;;2.26;79.57
26531;BME280;14201;43.188;24.160;2023-12-20T04:20:49;99608.66;;;2.18;79.15
26531;BME280;14201;43.188;24.160;2023-12-20T04:23:16;99600.06;;;2.17;78.79
26531;BME280;14201;43.188;24.160;2023-12-20T04:25:42;99595.03;;;2.19;78.94
26531;BME280;14201;43.188;24.160;2023-12-20T04:28:07;99595.25;;;2.22;79.65
26531;BME280;14201;43.188;24.160;2023-12-20T04:30:33;99596.81;;;2.20;80.10
26531;BME280;14201;43.188;24.160;2023-12-20T04:32:59;99580.25;;;2.16;80.37
26531;BME280;14201;43.188;24.160;2023-12-20T04:35:24;99589.53;;;2.26;80.62
26531;BME280;14201;43.188;24.160;2023-12-20T04:37:50;99583.66;;;2.27;80.42
26531;BME280;14201;43.188;24.160;2023-12-20T04:40:15;99571.34;;;2.23;80.68
26531;BME280;14201;43.188;24.160;2023-12-20T04:42:41;99578.50;;;2.27;80.53
26531;BME280;14201;43.188;24.160;2023-12-20T04:45:07;99573.56;;;2.30;80.18
26531;BME280;14201;43.188;24.160;2023-12-20T04:47:32;99573.13;;;2.24;79.99
26531;BME280;14201;43.188;24.160;2023-12-20T04:49:58;99582.41;;;2.22;79.52
26531;BME280;14201;43.188;24.160;2023-12-20T04:52:24;99567.41;;;2.16;79.54
26531;BME280;14201;43.188;24.160;2023-12-20T04:54:49;99570.22;;;2.20;79.60
26531;BME280;14201;43.188;24.160;2023-12-20T04:57:15;99561.63;;;2.19;80.00
26531;BME280;14201;43.188;24.160;2023-12-20T04:59:40;99547.88;;;2.07;79.06
26531;BME280;14201;43.188;24.160;2023-12-20T05:02:07;99556.81;;;2.12;79.72
26531;BME280;14201;43.188;24.160;2023-12-20T05:04:32;99560.16;;;2.11;80.35
26531;BME280;14201;43.188;24.160;2023-12-20T05:06:58;99555.00;;;2.11;80.55
26531;BME280;14201;43.188;24.160;2023-12-20T05:09:23;99553.25;;;2.10;80.60
26531;BME280;14201;43.188;24.160;2023-12-20T05:11:49;99537.03;;;2.11;79.72
26531;BME280;14201;43.188;24.160;2023-12-20T05:14:14;99547.19;;;2.09;79.46
26531;BME280;14201;43.188;24.160;2023-12-20T05:16:40;99549.66;;;2.08;79.66
26531;BME280;14201;43.188;24.160;2023-12-20T05:19:06;99547.28;;;1.99;80.23
26531;BME280;14201;43.188;24.160;2023-12-20T05:21:32;99542.84;;;1.96;80.75
26531;BME280;14201;43.188;24.160;2023-12-20T05:23:58;99545.16;;;1.93;79.94
26531;BME280;14201;43.188;24.160;2023-12-20T05:26:24;99532.84;;;1.77;79.02
26531;BME280;14201;43.188;24.160;2023-12-20T05:28:49;99545.81;;;1.79;79.70
26531;BME280;14201;43.188;24.160;2023-12-20T05:31:15;99551.81;;;1.68;80.27
26531;BME280;14201;43.188;24.160;2023-12-20T05:33:40;99542.22;;;1.65;81.17
26531;BME280;14201;43.188;24.160;2023-12-20T05:36:06;99541.28;;;1.65;81.29
26531;BME280;14201;43.188;24.160;2023-12-20T05:38:36;99535.84;;;1.60;80.36
26531;BME280;14201;43.188;24.160;2023-12-20T05:41:02;99530.56;;;1.58;81.12
26531;BME280;14201;43.188;24.160;2023-12-20T05:43:27;99539.28;;;1.61;82.01
26531;BME280;14201;43.188;24.160;2023-12-20T05:45:53;99542.09;;;1.64;82.49
26531;BME280;14201;43.188;24.160;2023-12-20T05:48:19;99528.25;;;1.62;82.76
26531;BME280;14201;43.188;24.160;2023-12-20T05:50:44;99526.16;;;1.68;82.56
26531;BME280;14201;43.188;24.160;2023-12-20T05:53:10;99522.91;;;1.70;82.71
26531;BME280;14201;43.188;24.160;2023-12-20T05:55:35;99524.81;;;1.73;82.62
26531;BME280;14201;43.188;24.160;2023-12-20T05:58:01;99525.28;;;1.79;82.45
26531;BME280;14201;43.188;24.160;2023-12-20T06:00:26;99526.16;;;1.80;81.39
26531;BME280;14201;43.188;24.160;2023-12-20T06:02:52;99514.75;;;1.76;80.88
26531;BME280;14201;43.188;24.160;2023-12-20T06:05:18;99506.72;;;1.71;80.23
26531;BME280;14201;43.188;24.160;2023-12-20T06:07:43;99508.28;;;1.69;79.84
26531;BME280;14201;43.188;24.160;2023-12-20T06:10:10;99499.47;;;1.66;80.52
26531;BME280;14201;43.188;24.160;2023-12-20T06:12:36;99498.59;;;1.77;81.72
26531;BME280;14201;43.188;24.160;2023-12-20T06:15:02;99507.44;;;1.92;82.67
26531;BME280;14201;43.188;24.160;2023-12-20T06:17:28;99507.66;;;2.07;81.48
26531;BME280;14201;43.188;24.160;2023-12-20T06:19:55;99480.19;;;2.06;80.58
26531;BME280;14201;43.188;24.160;2023-12-20T06:22:21;99502.53;;;2.31;81.20
26531;BME280;14201;43.188;24.160;2023-12-20T06:24:47;99499.84;;;2.41;82.04
26531;BME280;14201;43.188;24.160;2023-12-20T06:27:12;99495.44;;;2.52;80.38
26531;BME280;14201;43.188;24.160;2023-12-20T06:29:38;99495.34;;;2.62;79.00
26531;BME280;14201;43.188;24.160;2023-12-20T06:32:04;99496.69;;;2.57;78.91
26531;BME280;14201;43.188;24.160;2023-12-20T06:34:30;99492.00;;;2.51;79.13
26531;BME280;14201;43.188;24.160;2023-12-20T06:36:55;99494.53;;;2.63;79.85
26531;BME280;14201;43.188;24.160;2023-12-20T06:39:21;99502.56;;;2.80;79.45
26531;BME280;14201;43.188;24.160;2023-12-20T06:41:46;99501.19;;;2.85;79.85
26531;BME280;14201;43.188;24.160;2023-12-20T06:44:12;99494.31;;;3.09;79.20
26531;BME280;14201;43.188;24.160;2023-12-20T06:46:37;99504.03;;;3.38;79.51
26531;BME280;14201;43.188;24.160;2023-12-20T06:49:03;99497.53;;;3.57;78.12
26531;BME280;14201;43.188;24.160;2023-12-20T06:51:28;99496.63;;;3.81;78.59
26531;BME280;14201;43.188;24.160;2023-12-20T06:53:56;99486.84;;;4.02;77.20
26531;BME280;14201;43.188;24.160;2023-12-20T06:56:21;99469.91;;;4.19;75.83
26531;BME280;14201;43.188;24.160;2023-12-20T06:58:47;99476.81;;;4.47;74.83
26531;BME280;14201;43.188;24.160;2023-12-20T07:01:13;99486.72;;;4.67;74.20
26531;BME280;14201;43.188;24.160;2023-12-20T07:03:39;99486.63;;;4.94;74.56
26531;BME280;14201;43.188;24.160;2023-12-20T07:06:05;99484.56;;;5.17;75.92
26531;BME280;14201;43.188;24.160;2023-12-20T07:08:31;99482.50;;;5.54;75.38
26531;BME280;14201;43.188;24.160;2023-12-20T07:10:56;99483.97;;;5.79;76.12
26531;BME280;14201;43.188;24.160;2023-12-20T07:13:22;99476.84;;;5.89;76.73
26531;BME280;14201;43.188;24.160;2023-12-20T07:15:48;99461.81;;;5.97;74.83
26531;BME280;14201;43.188;24.160;2023-12-20T07:18:14;99466.59;;;6.21;74.47
26531;BME280;14201;43.188;24.160;2023-12-20T07:20:39;99461.81;;;6.43;71.81
26531;BME280;14201;43.188;24.160;2023-12-20T07:23:05;99458.03;;;6.53;71.91
26531;BME280;14201;43.188;24.160;2023-12-20T07:25:30;99463.63;;;6.61;69.51
26531;BME280;14201;43.188;24.160;2023-12-20T07:27:58;99457.22;;;6.85;70.86
26531;BME280;14201;43.188;24.160;2023-12-20T07:30:24;99457.84;;;6.98;67.19
26531;BME280;14201;43.188;24.160;2023-12-20T07:32:49;99460.03;;;7.23;68.57
26531;BME280;14201;43.188;24.160;2023-12-20T07:35:18;99448.56;;;7.18;65.99
26531;BME280;14201;43.188;24.160;2023-12-20T07:37:43;99450.88;;;7.62;67.79
26531;BME280;14201;43.188;24.160;2023-12-20T07:40:10;99432.91;;;7.83;65.89
26531;BME280;14201;43.188;24.160;2023-12-20T07:42:36;99439.91;;;8.20;64.45
26531;BME280;14201;43.188;24.160;2023-12-20T07:45:02;99439.31;;;8.44;67.33
26531;BME280;14201;43.188;24.160;2023-12-20T07:47:27;99432.97;;;8.39;68.38
26531;BME280;14201;43.188;24.160;2023-12-20T07:49:53;99438.16;;;8.57;66.69
26531;BME280;14201;43.188;24.160;2023-12-20T07:52:19;99428.56;;;8.74;66.86
26531;BME280;14201;43.188;24.160;2023-12-20T07:54:45;99438.00;;;8.72;65.89
26531;BME280;14201;43.188;24.160;2023-12-20T07:57:11;99431.75;;;8.86;66.24
26531;BME280;14201;43.188;24.160;2023-12-20T07:59:37;99423.97;;;9.05;63.66
26531;BME280;14201;43.188;24.160;2023-12-20T08:02:03;99428.56;;;9.52;64.10
26531;BME280;14201;43.188;24.160;2023-12-20T08:04:28;99422.75;;;9.78;62.46
26531;BME280;14201;43.188;24.160;2023-12-20T08:06:54;99423.47;;;9.95;61.93
26531;BME280;14201;43.188;24.160;2023-12-20T08:09:20;99428.03;;;10.22;62.39
26531;BME280;14201;43.188;24.160;2023-12-20T08:11:47;99428.00;;;10.88;61.42
26531;BME280;14201;43.188;24.160;2023-12-20T08:14:12;99421.84;;;11.10;56.57
26531;BME280;14201;43.188;24.160;2023-12-20T08:16:38;99425.84;;;11.25;53.35
26531;BME280;14201;43.188;24.160;2023-12-20T08:19:04;99423.47;;;11.31;52.94
26531;BME280;14201;43.188;24.160;2023-12-20T08:21:30;99414.13;;;11.37;56.66
26531;BME280;14201;43.188;24.160;2023-12-20T08:23:55;99417.78;;;11.42;55.83
26531;BME280;14201;43.188;24.160;2023-12-20T08:26:21;99415.13;;;11.41;56.29
26531;BME280;14201;43.188;24.160;2023-12-20T08:28:50;99410.56;;;11.59;56.05
26531;BME280;14201;43.188;24.160;2023-12-20T08:31:16;99398.75;;;11.71;54.47
26531;BME280;14201;43.188;24.160;2023-12-20T08:33:46;99389.50;;;11.80;50.94
26531;BME280;14201;43.188;24.160;2023-12-20T08:36:12;99380.03;;;11.82;52.23
26531;BME280;14201;43.188;24.160;2023-12-20T08:38:38;99381.91;;;11.87;51.97
26531;BME280;14201;43.188;24.160;2023-12-20T08:41:04;99382.72;;;11.86;50.48
26531;BME280;14201;43.188;24.160;2023-12-20T08:43:34;99373.91;;;11.82;49.40
26531;BME280;14201;43.188;24.160;2023-12-20T08:46:00;99366.94;;;11.81;49.97
26531;BME280;14201;43.188;24.160;2023-12-20T08:48:26;99369.78;;;11.89;53.39
26531;BME280;14201;43.188;24.160;2023-12-20T08:50:51;99363.00;;;11.94;54.81
26531;BME280;14201;43.188;24.160;2023-12-20T08:53:18;99355.72;;;12.11;55.70
26531;BME280;14201;43.188;24.160;2023-12-20T08:55:44;99346.78;;;12.31;54.81
26531;BME280;14201;43.188;24.160;2023-12-20T08:58:11;99346.75;;;12.60;53.90
26531;BME280;14201;43.188;24.160;2023-12-20T09:00:36;99344.41;;;12.69;51.09
26531;BME280;14201;43.188;24.160;2023-12-20T09:03:02;99336.63;;;12.71;52.87
26531;BME280;14201;43.188;24.160;2023-12-20T09:05:28;99334.94;;;12.73;51.21
26531;BME280;14201;43.188;24.160;2023-12-20T09:07:54;99336.78;;;12.77;51.09
26531;BME280;14201;43.188;24.160;2023-12-20T09:10:19;99330.59;;;12.73;52.33
26531;BME280;14201;43.188;24.160;2023-12-20T09:12:51;99316.56;;;12.70;52.07
26531;BME280;14201;43.188;24.160;2023-12-20T09:15:22;99319.38;;;12.76;52.24
26531;BME280;14201;43.188;24.160;2023-12-20T09:17:48;99321.13;;;12.77;51.36
26531;BME280;14201;43.188;24.160;2023-12-20T09:20:14;99310.53;;;12.72;51.33
26531;BME280;14201;43.188;24.160;2023-12-20T09:22:39;99307.06;;;12.72;51.94
26531;BME280;14201;43.188;24.160;2023-12-20T09:25:07;99300.03;;;12.71;52.14
26531;BME280;14201;43.188;24.160;2023-12-20T09:27:33;99296.41;;;12.66;52.46
26531;BME280;14201;43.188;24.160;2023-12-20T09:29:59;99295.63;;;12.68;52.44
26531;BME280;14201;43.188;24.160;2023-12-20T09:32:24;99285.03;;;12.64;52.16
26531;BME280;14201;43.188;24.160;2023-12-20T09:34:50;99280.72;;;12.66;51.11
26531;BME280;14201;43.188;24.160;2023-12-20T09:37:15;99281.75;;;12.71;50.57
26531;BME280;14201;43.188;24.160;2023-12-20T09:39:41;99272.94;;;12.67;49.92
26531;BME280;14201;43.188;24.160;2023-12-20T09:42:07;99268.53;;;12.65;49.69
26531;BME280;14201;43.188;24.160;2023-12-20T09:44:33;99263.25;;;12.63;50.85
26531;BME280;14201;43.188;24.160;2023-12-20T09:47:03;99257.16;;;12.63;51.83
26531;BME280;14201;43.188;24.160;2023-12-20T09:49:30;99243.06;;;12.57;52.21
26531;BME280;14201;43.188;24.160;2023-12-20T09:51:56;99257.22;;;12.66;53.02
26531;BME280;14201;43.188;24.160;2023-12-20T09:54:23;99243.31;;;12.67;53.25
26531;BME280;14201;43.188;24.160;2023-12-20T09:56:49;99246.84;;;12.69;51.88
26531;BME280;14201;43.188;24.160;2023-12-20T09:59:15;99241.69;;;12.70;50.83
26531;BME280;14201;43.188;24.160;2023-12-20T10:01:42;99228.72;;;12.75;51.12
26531;BME280;14201;43.188;24.160;2023-12-20T10:04:09;99223.75;;;12.84;47.76
26531;BME280;14201;43.188;24.160;2023-12-20T10:06:41;99221.94;;;13.15;51.00
26531;BME280;14201;43.188;24.160;2023-12-20T10:09:07;99213.22;;;13.49;49.78
26531;BME280;14201;43.188;24.160;2023-12-20T10:11:35;99208.56;;;13.75;48.71
26531;BME280;14201;43.188;24.160;2023-12-20T10:14:01;99200.38;;;14.01;48.32
26531;BME280;14201;43.188;24.160;2023-12-20T10:16:27;99192.47;;;14.41;48.04
26531;BME280;14201;43.188;24.160;2023-12-20T10:18:54;99187.56;;;14.57;44.79
26531;BME280;14201;43.188;24.160;2023-12-20T10:21:20;99177.16;;;14.61;43.14
26531;BME280;14201;43.188;24.160;2023-12-20T10:23:46;99173.47;;;14.52;43.02
26531;BME280;14201;43.188;24.160;2023-12-20T10:26:22;99166.88;;;14.73;42.42
26531;BME280;14201;43.188;24.160;2023-12-20T10:28:53;99158.47;;;14.91;43.32
26531;BME280;14201;43.188;24.160;2023-12-20T10:31:30;99156.50;;;14.77;41.26
26531;BME280;14201;43.188;24.160;2023-12-20T10:33:59;99139.41;;;15.01;40.56
26531;BME280;14201;43.188;24.160;2023-12-20T10:36:30;99136.47;;;15.38;40.50
26531;BME280;14201;43.188;24.160;2023-12-20T10:38:56;99132.44;;;15.64;43.91
26531;BME280;14201;43.188;24.160;2023-12-20T10:41:30;99125.13;;;16.04;46.11
26531;BME280;14201;43.188;24.160;2023-12-20T10:44:01;99125.41;;;16.29;43.95
26531;BME280;14201;43.188;24.160;2023-12-20T10:46:29;99125.63;;;16.53;43.76
26531;BME280;14201;43.188;24.160;2023-12-20T10:48:56;99123.03;;;16.52;42.64
26531;BME280;14201;43.188;24.160;2023-12-20T10:51:22;99120.31;;;16.44;41.80
26531;BME280;14201;43.188;24.160;2023-12-20T10:53:50;99113.13;;;16.29;42.53
26531;BME280;14201;43.188;24.160;2023-12-20T10:56:19;99108.63;;;16.18;42.78
26531;BME280;14201;43.188;24.160;2023-12-20T10:58:48;99114.53;;;15.98;42.60
26531;BME280;14201;43.188;24.160;2023-12-20T11:01:16;99122.22;;;15.81;42.55
26531;BME280;14201;43.188;24.160;2023-12-20T11:03:53;99123.66;;;15.61;42.09
26531;BME280;14201;43.188;24.160;2023-12-20T11:06:43;99105.06;;;15.44;43.29
26531;BME280;14201;43.188;24.160;2023-12-20T11:11:56;99107.28;;;15.16;44.89
26531;BME280;14201;43.188;24.160;2023-12-20T11:14:27;99098.47;;;15.11;45.26
26531;BME280;14201;43.188;24.160;2023-12-20T11:17:08;99091.31;;;15.02;45.77
26531;BME280;14201;43.188;24.160;2023-12-20T11:22:29;99089.13;;;15.31;47.17
26531;BME280;14201;43.188;24.160;2023-12-20T11:25:05;99076.38;;;15.58;46.43
26531;BME280;14201;43.188;24.160;2023-12-20T11:27:33;99075.78;;;15.79;45.68
26531;BME280;14201;43.188;24.160;2023-12-20T11:30:03;99075.84;;;15.85;46.00
26531;BME280;14201;43.188;24.160;2023-12-20T11:32:34;99072.34;;;15.84;46.11
26531;BME280;14201;43.188;24.160;2023-12-20T11:35:20;99072.47;;;15.95;46.36
26531;BME280;14201;43.188;24.160;2023-12-20T11:37:46;99070.72;;;15.97;44.73
26531;BME280;14201;43.188;24.160;2023-12-20T11:40:18;99064.47;;;15.83;44.91
26531;BME280;14201;43.188;24.160;2023-12-20T11:42:51;99058.16;;;15.71;46.69
26531;BME280;14201;43.188;24.160;2023-12-20T11:45:22;99050.88;;;15.49;46.45
26531;BME280;14201;43.188;24.160;2023-12-20T11:47:50;99050.16;;;15.61;48.45
26531;BME280;14201;43.188;24.160;2023-12-20T11:50:21;99050.38;;;15.78;48.29
26531;BME280;14201;43.188;24.160;2023-12-20T11:52:48;99039.13;;;15.88;47.79
26531;BME280;14201;43.188;24.160;2023-12-20T11:55:14;99033.03;;;15.93;48.16
26531;BME280;14201;43.188;24.160;2023-12-20T11:57:40;99026.97;;;15.96;48.14
26531;BME280;14201;43.188;24.160;2023-12-20T12:00:06;99030.59;;;16.07;48.65
26531;BME280;14201;43.188;24.160;2023-12-20T12:02:32;99016.63;;;16.14;47.75
26531;BME280;14201;43.188;24.160;2023-12-20T12:04:59;99017.53;;;16.15;46.81
26531;BME280;14201;43.188;24.160;2023-12-20T12:07:25;99014.00;;;16.14;45.96
26531;BME280;14201;43.188;24.160;2023-12-20T12:09:51;99005.13;;;16.02;44.14
26531;BME280;14201;43.188;24.160;2023-12-20T12:12:17;99005.81;;;15.84;44.02
26531;BME280;14201;43.188;24.160;2023-12-20T12:14:46;99001.28;;;15.70;44.31
26531;BME280;14201;43.188;24.160;2023-12-20T12:17:12;98995.88;;;15.58;43.75
26531;BME280;14201;43.188;24.160;2023-12-20T12:19:42;98991.44;;;15.51;43.61
26531;BME280;14201;43.188;24.160;2023-12-20T12:22:15;98991.41;;;15.49;44.33
26531;BME280;14201;43.188;24.160;2023-12-20T12:24:46;98976.50;;;15.45;44.70
26531;BME280;14201;43.188;24.160;2023-12-20T12:27:15;98978.09;;;15.34;44.62
26531;BME280;14201;43.188;24.160;2023-12-20T12:29:41;98965.63;;;15.18;45.86
26531;BME280;14201;43.188;24.160;2023-12-20T12:32:25;98961.19;;;15.12;46.83
26531;BME280;14201;43.188;24.160;2023-12-20T12:34:51;98956.66;;;15.00;47.44
26531;BME280;14201;43.188;24.160;2023-12-20T12:37:16;98957.59;;;15.04;48.06
26531;BME280;14201;43.188;24.160;2023-12-20T12:39:42;98935.63;;;14.95;48.72
26531;BME280;14201;43.188;24.160;2023-12-20T12:42:08;98954.19;;;15.11;49.43
26531;BME280;14201;43.188;24.160;2023-12-20T12:44:33;98955.03;;;15.10;50.08
26531;BME280;14201;43.188;24.160;2023-12-20T12:46:59;98953.34;;;15.13;50.60
26531;BME280;14201;43.188;24.160;2023-12-20T12:49:25;98949.91;;;15.16;50.91
26531;BME280;14201;43.188;24.160;2023-12-20T12:51:51;98966.63;;;15.27;50.79
26531;BME280;14201;43.188;24.160;2023-12-20T12:54:16;98949.78;;;15.10;50.84
26531;BME280;14201;43.188;24.160;2023-12-20T12:56:44;98965.66;;;15.19;51.65
26531;BME280;14201;43.188;24.160;2023-12-20T12:59:10;98961.34;;;15.23;52.36